Time;durP1;ratioP1;P1;durP2;ratioP2;P2;SDS_P1;SDS_P2;PMS_P1;PMS_P2;Temp;Humidity;BMP_temperature;BMP_pressure;BME280_temperature;BME280_humidity;BME280_pressure;Samples;Min_cycle;Max_cycle;Signal;HPM_P1;HPM_P2
2023/10/22 00:00:22;;;;;;;4.88;2.58;;;;;;;13.43;72.10;98902.34;6121337;23;20017;-89
2023/10/22 00:02:49;;;;;;;6.45;2.58;;;;;;;13.42;71.94;98898.84;6098451;23;20450;-89
2023/10/22 00:05:16;;;;;;;4.78;2.55;;;;;;;13.39;71.97;98903.72;6098283;23;20347;-89
2023/10/22 00:07:42;;;;;;;8.23;2.72;;;;;;;13.41;72.08;98896.38;6097759;23;20457;-89
2023/10/22 00:10:09;;;;;;;5.80;2.45;;;;;;;13.36;71.99;98888.91;6098092;23;20101;-89
2023/10/22 00:12:36;;;;;;;4.93;2.42;;;;;;;13.37;72.00;98898.56;6073395;23;20391;-89
2023/10/22 00:15:03;;;;;;;8.32;2.70;;;;;;;13.35;71.88;98897.91;6098303;23;20384;-89
2023/10/22 00:17:33;;;;;;;3.90;2.17;;;;;;;13.32;71.93;98890.25;6098036;23;20028;-89
2023/10/22 00:20:00;;;;;;;4.97;2.90;;;;;;;13.30;72.25;98897.59;6121984;23;20029;-89
2023/10/22 00:22:26;;;;;;;8.10;3.15;;;;;;;13.27;71.96;98897.94;6097336;23;20044;-89
2023/10/22 00:24:53;;;;;;;5.97;3.17;;;;;;;13.26;72.00;98906.94;6121794;23;20025;-90
2023/10/22 00:27:20;;;;;;;8.57;2.97;;;;;;;13.26;71.76;98909.59;6073423;23;20505;-89
2023/10/22 00:29:47;;;;;;;6.70;3.60;;;;;;;13.26;71.66;98912.28;6096811;23;20041;-89
2023/10/22 00:32:14;;;;;;;5.93;3.53;;;;;;;13.22;71.97;98924.28;6098121;23;20029;-90
2023/10/22 00:34:40;;;;;;;5.03;3.03;;;;;;;13.20;71.82;98918.28;6097075;23;20028;-90
2023/10/22 00:37:08;;;;;;;4.65;2.60;;;;;;;13.18;71.74;98921.16;6073564;23;20025;-91
2023/10/22 00:39:35;;;;;;;4.93;2.88;;;;;;;13.15;72.00;98921.50;6097190;23;20025;-89
2023/10/22 00:42:02;;;;;;;3.65;2.47;;;;;;;13.18;71.59;98931.81;6097442;23;20037;-90
2023/10/22 00:44:29;;;;;;;4.90;2.92;;;;;;;13.15;71.35;98932.16;6097070;23;20038;-89
2023/10/22 00:46:56;;;;;;;7.00;2.70;;;;;;;13.10;71.27;98933.66;6122595;23;20048;-89
2023/10/22 00:49:23;;;;;;;3.38;2.50;;;;;;;13.08;71.40;98941.84;6097222;23;20326;-88
2023/10/22 00:51:50;;;;;;;4.28;1.95;;;;;;;13.04;71.45;98933.34;6073760;23;20363;-89
2023/10/22 00:54:19;;;;;;;2.50;2.00;;;;;;;13.03;71.54;98937.03;6074088;23;20435;-88
2023/10/22 00:56:48;;;;;;;3.90;2.03;;;;;;;13.02;71.71;98942.53;6097741;23;20041;-89
2023/10/22 00:59:15;;;;;;;6.18;2.50;;;;;;;12.99;71.49;98949.03;6072928;23;20037;-89
2023/10/22 01:01:44;;;;;;;5.45;3.28;;;;;;;12.98;71.67;98949.22;6073814;23;20024;-88
2023/10/22 01:04:12;;;;;;;6.88;2.30;;;;;;;12.97;71.97;98950.22;6073356;23;20489;-90
2023/10/22 01:06:39;;;;;;;5.60;2.75;;;;;;;12.92;72.07;98947.22;6097284;23;20032;-89
2023/10/22 01:09:09;;;;;;;5.05;2.58;;;;;;;12.94;72.24;98951.38;6073023;23;20044;-89
2023/10/22 01:11:38;;;;;;;4.05;2.35;;;;;;;12.90;72.19;98955.41;6097089;23;20370;-90
2023/10/22 01:14:05;;;;;;;6.90;2.65;;;;;;;12.88;72.67;98953.94;6097030;23;24401;-90
2023/10/22 01:16:32;;;;;;;5.05;2.55;;;;;;;12.88;73.09;98961.94;6073023;23;20018;-89
2023/10/22 01:18:59;;;;;;;2.40;2.08;;;;;;;12.92;72.97;98953.38;6073375;23;20334;-89
2023/10/22 01:21:29;;;;;;;4.18;2.50;;;;;;;12.94;72.57;98954.06;6096839;23;20029;-90
2023/10/22 01:23:56;;;;;;;6.03;2.70;;;;;;;12.94;72.29;98958.56;6122314;23;20121;-90
2023/10/22 01:26:24;;;;;;;6.63;2.65;;;;;;;12.91;71.73;98958.91;6072713;23;20517;-90
2023/10/22 01:28:51;;;;;;;6.32;2.53;;;;;;;12.89;71.52;98952.91;6072927;23;20017;-91
2023/10/22 01:31:18;;;;;;;4.70;2.15;;;;;;;12.88;71.47;98961.94;6122011;23;20430;-90
2023/10/22 01:33:45;;;;;;;4.35;2.50;;;;;;;12.86;71.56;98962.09;6073401;23;20032;-90
2023/10/22 01:36:12;;;;;;;2.60;2.40;;;;;;;12.84;71.37;98958.75;6121074;23;20028;-89
2023/10/22 01:38:39;;;;;;;8.35;2.42;;;;;;;12.86;71.46;98961.25;6121505;23;20684;-90
2023/10/22 01:41:06;;;;;;;4.43;2.03;;;;;;;12.86;71.55;98967.41;6073410;23;20424;-90
2023/10/22 01:43:33;;;;;;;5.88;2.58;;;;;;;12.83;71.95;98959.78;6073308;23;20021;-89
2023/10/22 01:46:00;;;;;;;10.05;3.00;;;;;;;12.81;72.13;98962.59;6073640;23;20028;-89
2023/10/22 01:48:27;;;;;;;5.53;2.60;;;;;;;12.79;71.95;98953.94;6096615;23;20120;-90
2023/10/22 01:50:54;;;;;;;19.45;3.25;;;;;;;12.74;71.62;98956.28;6096627;23;20346;-89
2023/10/22 01:53:22;;;;;;;5.10;2.67;;;;;;;12.71;71.17;98959.28;6073083;23;20009;-90
2023/10/22 01:55:49;;;;;;;6.45;2.60;;;;;;;12.68;71.08;98954.31;6097485;23;20025;-91
2023/10/22 01:58:16;;;;;;;6.18;2.60;;;;;;;12.67;70.95;98963.31;6096643;23;20438;-89
2023/10/22 02:00:43;;;;;;;8.43;2.80;;;;;;;12.64;70.98;98960.97;6096532;23;20020;-89
2023/10/22 02:03:10;;;;;;;7.40;2.58;;;;;;;12.62;71.20;98957.66;6073259;23;20056;-90
2023/10/22 02:05:37;;;;;;;7.93;2.90;;;;;;;12.59;70.90;98968.66;6096212;23;20028;-89
2023/10/22 02:08:06;;;;;;;6.07;2.38;;;;;;;12.58;71.00;98969.66;6073227;23;20498;-89
2023/10/22 02:10:33;;;;;;;4.88;2.60;;;;;;;12.58;70.99;98973.16;6073546;23;20028;-90
2023/10/22 02:13:00;;;;;;;3.50;2.20;;;;;;;12.57;71.18;98979.47;6073251;23;20469;-90
2023/10/22 02:15:27;;;;;;;2.58;2.08;;;;;;;12.54;71.02;98977.16;6095426;23;20112;-89
2023/10/22 02:17:54;;;;;;;5.32;2.15;;;;;;;12.54;71.06;98981.63;6073594;23;20017;-90
2023/10/22 02:20:21;;;;;;;3.53;2.28;;;;;;;12.53;71.08;98979.97;6096026;23;20021;-90
2023/10/22 02:22:48;;;;;;;4.88;2.50;;;;;;;12.54;71.60;98984.28;6071903;23;20029;-90
2023/10/22 02:25:15;;;;;;;26.30;4.55;;;;;;;12.48;71.36;98980.47;6072524;23;20023;-90
2023/10/22 02:27:42;;;;;;;3.75;2.65;;;;;;;12.47;71.12;98988.66;6095938;23;20454;-89
2023/10/22 02:30:09;;;;;;;4.28;2.90;;;;;;;12.41;70.82;98982.16;6071549;23;20100;-90
2023/10/22 02:32:36;;;;;;;4.25;2.55;;;;;;;12.43;70.67;98984.66;6096829;23;20018;-90
2023/10/22 02:35:04;;;;;;;4.97;2.30;;;;;;;12.41;70.63;98986.66;6072519;23;20452;-91
2023/10/22 02:37:30;;;;;;;8.93;2.55;;;;;;;12.37;70.94;98989.66;6096317;23;20045;-90
2023/10/22 02:39:57;;;;;;;4.05;2.55;;;;;;;12.35;70.74;98986.31;6096484;23;20033;-90
2023/10/22 02:42:26;;;;;;;5.25;2.90;;;;;;;12.33;71.25;98990.97;6072531;23;20096;-91
2023/10/22 02:44:52;;;;;;;17.67;2.92;;;;;;;12.27;71.68;98991.66;6096936;23;20096;-92
2023/10/22 02:47:20;;;;;;;3.45;2.58;;;;;;;12.26;71.62;98991.81;6096680;23;20022;-90
2023/10/22 02:49:47;;;;;;;4.10;2.17;;;;;;;12.28;71.69;98989.81;6049267;23;20386;-89
2023/10/22 02:52:14;;;;;;;4.57;2.50;;;;;;;12.29;71.29;98995.00;6073064;23;20335;-91
2023/10/22 02:54:41;;;;;;;3.25;2.63;;;;;;;12.26;71.87;98997.16;6071736;23;20017;-91
2023/10/22 02:57:09;;;;;;;5.05;2.45;;;;;;;12.24;71.73;99007.97;6073057;23;20072;-91
2023/10/22 02:59:36;;;;;;;3.28;1.90;;;;;;;12.23;71.61;99011.63;6096269;23;20031;-92
2023/10/22 03:02:03;;;;;;;5.03;2.53;;;;;;;12.24;70.87;99007.16;6072667;23;20065;-90
2023/10/22 03:04:30;;;;;;;5.78;2.28;;;;;;;12.24;70.77;99009.81;6096105;23;20509;-91
2023/10/22 03:06:57;;;;;;;6.07;2.55;;;;;;;12.22;70.84;99014.47;6095505;23;20029;-90
2023/10/22 03:09:24;;;;;;;4.80;2.58;;;;;;;12.23;70.47;99022.25;6096411;23;20089;-89
2023/10/22 03:11:51;;;;;;;5.57;3.10;;;;;;;12.20;70.67;99016.44;6072073;23;20021;-91
2023/10/22 03:14:20;;;;;;;3.85;2.70;;;;;;;12.20;70.86;99029.75;6120473;23;20025;-90
2023/10/22 03:16:47;;;;;;;6.38;2.25;;;;;;;12.16;70.80;99029.25;6096956;23;20041;-90
2023/10/22 03:19:14;;;;;;;35.10;20.60;;;;;;;12.12;71.16;99035.91;6072922;23;20325;-89
2023/10/22 03:21:41;;;;;;;8.23;5.30;;;;;;;12.11;71.47;99039.56;6095738;23;20021;-91
2023/10/22 03:24:11;;;;;;;5.43;3.45;;;;;;;12.10;71.44;99037.91;6073272;23;20013;-90
2023/10/22 03:26:38;;;;;;;8.77;3.42;;;;;;;12.03;72.10;99045.69;6071563;23;20092;-90
2023/10/22 03:29:06;;;;;;;24.13;3.90;;;;;;;11.99;72.50;99043.56;6069628;23;20022;-91
2023/10/22 03:31:33;;;;;;;7.28;3.47;;;;;;;12.01;72.70;99050.38;6072186;23;20017;-90
2023/10/22 03:34:00;;;;;;;17.33;4.60;;;;;;;11.98;73.06;99049.84;6072470;23;20402;-92
2023/10/22 03:36:28;;;;;;;12.98;5.85;;;;;;;11.97;73.45;99050.88;6095300;23;20045;-90
2023/10/22 03:38:54;;;;;;;11.65;3.97;;;;;;;11.98;73.64;99060.50;6095623;23;20032;-90
2023/10/22 03:41:21;;;;;;;5.88;3.22;;;;;;;11.97;73.98;99053.53;6120862;23;20018;-89
2023/10/22 03:43:49;;;;;;;8.25;3.45;;;;;;;11.98;73.94;99056.00;6096382;23;20033;-90
2023/10/22 03:46:16;;;;;;;6.53;2.85;;;;;;;11.97;73.67;99056.19;6095191;23;20025;-92
2023/10/22 03:48:43;;;;;;;7.80;3.10;;;;;;;11.99;73.00;99046.22;6120380;23;20028;-90
2023/10/22 03:51:10;;;;;;;4.70;3.20;;;;;;;11.95;72.56;99053.66;6073640;23;20029;-91
2023/10/22 03:53:39;;;;;;;4.55;3.03;;;;;;;11.94;72.48;99057.34;6120970;23;20021;-90
2023/10/22 03:56:07;;;;;;;6.82;3.15;;;;;;;11.94;72.32;99058.16;6073187;23;20036;-91
2023/10/22 03:58:34;;;;;;;7.05;3.33;;;;;;;11.89;71.70;99054.34;6097539;23;20104;-90
2023/10/22 04:01:01;;;;;;;5.57;3.20;;;;;;;11.89;71.57;99055.16;6073855;23;20026;-92
2023/10/22 04:03:28;;;;;;;5.75;3.05;;;;;;;11.86;71.17;99055.50;6096952;23;20033;-89
2023/10/22 04:05:58;;;;;;;5.75;3.15;;;;;;;11.83;70.62;99065.59;6097589;23;20018;-90
2023/10/22 04:08:25;;;;;;;4.32;3.08;;;;;;;11.79;70.92;99062.44;6097538;23;20025;-91
2023/10/22 04:10:52;;;;;;;3.90;2.72;;;;;;;11.77;70.87;99069.72;6122127;23;20327;-91
2023/10/22 04:13:19;;;;;;;8.25;3.17;;;;;;;11.77;72.13;99071.56;6097889;23;20413;-90
2023/10/22 04:15:48;;;;;;;26.35;3.75;;;;;;;11.74;72.80;99080.69;6097413;23;20029;-91
2023/10/22 04:18:16;;;;;;;48.97;4.70;;;;;;;11.68;73.39;99076.03;6073444;23;20337;-90
2023/10/22 04:20:43;;;;;;;14.15;3.58;;;;;;;11.67;73.68;99082.34;6097521;23;20018;-89
2023/10/22 04:23:10;;;;;;;20.58;3.25;;;;;;;11.65;73.73;99082.50;6098485;23;20334;-90
2023/10/22 04:25:40;;;;;;;13.30;2.90;;;;;;;11.64;73.53;99077.34;6097874;23;20025;-92
2023/10/22 04:28:07;;;;;;;3.83;2.55;;;;;;;11.65;73.85;99094.94;6122158;23;20044;-90
2023/10/22 04:30:41;;;;;;;14.55;3.40;;;;;;;11.63;73.52;99086.31;6073682;23;20052;-91
2023/10/22 04:33:08;;;;;;;14.95;4.13;;;;;;;11.61;73.39;99083.00;6098094;23;20022;-90
2023/10/22 04:35:35;;;;;;;7.00;3.33;;;;;;;11.62;73.21;99095.28;6073110;23;20096;-91
2023/10/22 04:38:03;;;;;;;9.00;3.05;;;;;;;11.60;73.02;99091.94;6073783;23;20029;-90
2023/10/22 04:40:34;;;;;;;5.43;3.17;;;;;;;11.60;73.15;99102.56;6097327;23;20061;-90
2023/10/22 04:43:02;;;;;;;6.32;2.80;;;;;;;11.64;73.13;99103.94;6097894;23;20035;-90
2023/10/22 04:45:28;;;;;;;4.07;2.65;;;;;;;11.64;73.36;99095.97;6097268;23;20032;-92
2023/10/22 04:47:55;;;;;;;3.97;2.92;;;;;;;11.65;73.10;99105.59;6097153;23;20029;-91
2023/10/22 04:50:24;;;;;;;5.80;2.65;;;;;;;11.66;73.01;99112.59;6097092;23;20028;-91
2023/10/22 04:52:52;;;;;;;7.35;3.20;;;;;;;11.64;72.63;99110.06;6097885;23;20426;-91
2023/10/22 04:55:18;;;;;;;8.48;6.22;;;;;;;11.64;72.46;99112.75;6097360;23;20060;-90
2023/10/22 04:57:45;;;;;;;8.80;5.93;;;;;;;11.63;72.40;99121.72;6097424;23;20426;-91
2023/10/22 05:00:13;;;;;;;8.32;3.92;;;;;;;11.62;72.50;99121.88;6073085;23;20025;-91
2023/10/22 05:02:40;;;;;;;4.53;3.00;;;;;;;11.56;72.35;99126.00;6097319;23;20100;-91
2023/10/22 05:05:07;;;;;;;4.57;2.83;;;;;;;11.52;71.89;99133.47;6098283;23;20477;-88
2023/10/22 05:07:33;;;;;;;5.63;2.90;;;;;;;11.50;71.15;99124.00;6096653;23;20048;-91
2023/10/22 05:10:00;;;;;;;4.65;2.92;;;;;;;11.49;71.33;99131.13;6098157;23;21575;-92
2023/10/22 05:12:27;;;;;;;3.28;2.70;;;;;;;11.45;70.92;99128.97;6121170;23;20465;-90
2023/10/22 05:14:54;;;;;;;2.90;2.35;;;;;;;11.44;70.56;99133.41;6097387;23;20084;-90
2023/10/22 05:17:24;;;;;;;6.90;2.22;;;;;;;11.42;70.60;99135.44;6097561;23;20096;-90
2023/10/22 05:19:51;;;;;;;6.47;2.50;;;;;;;11.38;70.46;99120.78;6073630;23;20030;-90
2023/10/22 05:22:18;;;;;;;3.22;2.10;;;;;;;11.38;70.54;99138.56;6097257;23;20354;-91
2023/10/22 05:24:48;;;;;;;3.95;2.15;;;;;;;11.28;70.43;99128.03;6073333;23;20029;-90
2023/10/22 05:27:17;;;;;;;7.40;2.42;;;;;;;11.32;70.17;99129.38;6072004;23;20017;-91
2023/10/22 05:29:46;;;;;;;3.70;2.30;;;;;;;11.29;70.49;99129.69;6097559;23;20409;-90
2023/10/22 05:32:16;;;;;;;4.03;2.15;;;;;;;11.28;70.94;99128.03;6073169;23;20025;-93
2023/10/22 05:34:43;;;;;;;4.68;2.95;;;;;;;11.29;70.66;99140.31;6121189;23;20022;-91
2023/10/22 05:37:10;;;;;;;3.30;2.00;;;;;;;11.26;70.83;99136.16;6120380;23;20068;-90
2023/10/22 05:39:37;;;;;;;3.90;2.50;;;;;;;11.21;71.01;99143.75;6096414;23;20502;-90
2023/10/22 05:42:05;;;;;;;5.95;2.92;;;;;;;11.19;71.71;99144.91;6097512;23;20013;-92
2023/10/22 05:44:35;;;;;;;9.68;2.35;;;;;;;11.17;72.04;99149.53;6096323;23;20585;-90
2023/10/22 05:47:03;;;;;;;3.20;2.60;;;;;;;11.17;72.08;99163.69;6121275;23;20029;-89
2023/10/22 05:49:30;;;;;;;5.43;2.53;;;;;;;11.13;72.27;99164.16;6096584;23;20070;-92
2023/10/22 05:51:57;;;;;;;4.10;2.22;;;;;;;11.13;72.19;99169.47;6121689;23;20398;-90
2023/10/22 05:54:24;;;;;;;2.92;2.38;;;;;;;11.10;71.89;99170.59;6096386;23;20025;-92
2023/10/22 05:56:51;;;;;;;4.18;2.20;;;;;;;11.09;71.70;99171.56;6072761;23;20816;-90
2023/10/22 05:59:18;;;;;;;4.05;2.30;;;;;;;11.07;71.37;99177.06;6073226;23;20029;-90
2023/10/22 06:01:45;;;;;;;3.28;2.28;;;;;;;11.08;70.65;99178.72;6096459;23;20029;-91
2023/10/22 06:04:12;;;;;;;2.88;2.25;;;;;;;11.07;70.63;99177.06;6121136;23;20025;-90
2023/10/22 06:06:39;;;;;;;4.65;2.17;;;;;;;11.08;70.32;99178.72;6096606;23;20072;-91
2023/10/22 06:09:06;;;;;;;2.50;2.30;;;;;;;11.07;70.57;99185.03;6096984;23;20508;-91
2023/10/22 06:11:33;;;;;;;4.85;2.38;;;;;;;11.05;70.52;99189.66;6072204;23;20109;-92
2023/10/22 06:14:02;;;;;;;2.15;1.92;;;;;;;11.03;70.37;99191.63;6097137;23;20051;-91
2023/10/22 06:16:31;;;;;;;3.72;2.28;;;;;;;10.99;70.63;99192.09;6120984;23;20029;-90
2023/10/22 06:18:58;;;;;;;2.83;1.75;;;;;;;11.02;71.01;99200.59;6096678;23;20339;-90
2023/10/22 06:21:24;;;;;;;2.17;2.00;;;;;;;11.04;71.05;99200.44;6120463;23;20033;-92
2023/10/22 06:23:51;;;;;;;5.45;2.28;;;;;;;10.98;71.54;99199.22;6121635;23;20103;-91
2023/10/22 06:26:18;;;;;;;2.65;2.17;;;;;;;11.01;71.34;99209.53;6096593;23;20017;-91
2023/10/22 06:28:45;;;;;;;2.67;2.08;;;;;;;10.95;71.43;99207.50;6097177;23;20341;-92
2023/10/22 06:31:13;;;;;;;9.15;2.50;;;;;;;10.93;72.23;99212.13;6072735;23;20101;-91
2023/10/22 06:33:40;;;;;;;8.43;2.50;;;;;;;10.93;72.47;99213.97;6072597;23;20028;-90
2023/10/22 06:36:22;;;;;;;4.15;2.40;;;;;;;10.89;72.76;99213.44;6096570;23;20396;-91
2023/10/22 06:38:49;;;;;;;4.63;2.45;;;;;;;10.99;72.67;99216.84;6048128;23;20048;-92
2023/10/22 06:41:19;;;;;;;4.22;2.45;;;;;;;11.00;72.54;99215.84;6097212;23;20382;-92
2023/10/22 06:43:47;;;;;;;6.80;2.72;;;;;;;11.02;72.63;99224.50;6049402;23;20029;-92
2023/10/22 06:46:17;;;;;;;2.95;2.40;;;;;;;11.00;72.56;99226.47;6073508;23;20454;-90
2023/10/22 06:48:44;;;;;;;4.18;2.67;;;;;;;11.02;72.53;99231.66;6072197;23;20025;-91
2023/10/22 06:51:12;;;;;;;2.83;2.58;;;;;;;11.00;72.45;99228.31;6096054;23;20033;-91
2023/10/22 06:53:40;;;;;;;3.42;2.90;;;;;;;11.02;72.77;99239.63;6119943;23;20014;-91
2023/10/22 06:56:06;;;;;;;3.53;3.00;;;;;;;11.00;72.71;99239.75;6096353;23;20021;-90
2023/10/22 06:58:35;;;;;;;5.30;2.88;;;;;;;10.98;73.11;99238.25;6096731;23;20021;-92
2023/10/22 07:01:07;;;;;;;6.22;2.80;;;;;;;10.99;73.41;99248.72;6071807;23;20029;-93
2023/10/22 07:03:44;;;;;;;5.55;2.55;;;;;;;10.98;73.68;99248.88;6120777;23;20045;-91
2023/10/22 07:06:11;;;;;;;8.20;3.15;;;;;;;10.99;74.14;99245.22;6080977;23;20025;-91
2023/10/22 07:08:38;;;;;;;6.18;2.90;;;;;;;10.99;74.18;99253.19;6096049;23;20129;-89
2023/10/22 07:11:05;;;;;;;17.25;3.13;;;;;;;10.99;74.34;99250.53;6141153;23;20092;-89
2023/10/22 07:13:32;;;;;;;7.82;2.97;;;;;;;11.01;74.20;99249.38;6068918;23;20014;-88
2023/10/22 07:15:59;;;;;;;4.95;2.78;;;;;;;11.00;74.43;99253.03;6069139;23;20470;-88
2023/10/22 07:18:26;;;;;;;2.60;2.15;;;;;;;11.03;74.69;99262.53;6093370;23;20060;-89
2023/10/22 07:20:53;;;;;;;3.00;2.50;;;;;;;11.05;75.10;99244.63;6093467;23;20112;-88
2023/10/22 07:23:20;;;;;;;2.10;1.90;;;;;;;11.08;75.50;99257.59;6069223;23;20100;-89
2023/10/22 07:25:47;;;;;;;2.45;2.25;;;;;;;11.11;75.41;99253.78;6093343;23;20025;-88
2023/10/22 07:28:16;;;;;;;4.28;2.47;;;;;;;11.11;75.73;99259.09;6142532;23;20022;-88
2023/10/22 07:30:47;;;;;;;2.40;2.20;;;;;;;11.10;75.99;99255.63;6095348;23;20085;-89
2023/10/22 07:33:18;;;;;;;3.00;2.67;;;;;;;11.17;76.06;99259.34;6094263;23;20014;-88
2023/10/22 07:35:53;;;;;;;3.65;2.80;;;;;;;11.16;77.02;99270.13;6119315;23;20027;-88
2023/10/22 07:38:20;;;;;;;4.88;2.60;;;;;;;11.17;76.82;99264.66;6070184;23;20048;-87
2023/10/22 07:40:47;;;;;;;4.35;2.08;;;;;;;11.23;76.92;99271.19;6094875;23;20014;-90
2023/10/22 07:43:14;;;;;;;4.03;2.58;;;;;;;11.28;77.32;99276.88;6117179;23;20025;-90
2023/10/22 07:45:41;;;;;;;2.58;2.38;;;;;;;11.33;77.47;99268.44;6118417;23;20366;-90
2023/10/22 07:48:08;;;;;;;3.17;2.63;;;;;;;11.39;77.93;99279.25;6120540;23;20497;-92
2023/10/22 07:50:35;;;;;;;3.58;2.65;;;;;;;11.42;78.08;99284.28;6094987;23;20026;-89
2023/10/22 07:53:02;;;;;;;4.60;2.65;;;;;;;11.46;78.39;99282.97;6143875;23;20455;-89
2023/10/22 07:55:29;;;;;;;4.35;2.88;;;;;;;11.52;78.20;99293.00;6118640;23;20048;-91
2023/10/22 07:57:56;;;;;;;5.18;3.38;;;;;;;11.58;78.59;99291.56;6119438;23;20091;-89
2023/10/22 08:00:23;;;;;;;3.92;3.08;;;;;;;11.64;79.04;99290.91;6095806;23;20800;-90
2023/10/22 08:02:50;;;;;;;3.50;2.63;;;;;;;11.67;79.39;99295.91;6072142;23;20033;-92
2023/10/22 08:05:17;;;;;;;2.80;2.60;;;;;;;11.73;79.76;99302.47;6094760;23;20021;-89
2023/10/22 08:07:44;;;;;;;4.30;3.00;;;;;;;11.73;80.08;99295.31;6143330;23;20065;-90
2023/10/22 08:10:11;;;;;;;2.75;2.45;;;;;;;11.77;80.24;99300.31;6118272;23;20025;-90
2023/10/22 08:12:37;;;;;;;3.00;2.50;;;;;;;11.82;79.90;99300.69;6069453;23;20384;-89
2023/10/22 08:15:05;;;;;;;4.43;2.80;;;;;;;11.86;80.49;99302.03;6119036;23;20017;-90
2023/10/22 08:17:32;;;;;;;5.63;2.55;;;;;;;11.89;81.11;99299.91;6093204;23;20335;-88
2023/10/22 08:19:59;;;;;;;3.42;2.58;;;;;;;11.90;81.66;99301.56;6071250;23;20025;-89
2023/10/22 08:22:26;;;;;;;4.97;2.53;;;;;;;11.94;81.62;99308.25;6095034;23;20017;-90
2023/10/22 08:24:53;;;;;;;3.78;2.53;;;;;;;11.95;81.79;99309.91;6117976;23;20092;-91
2023/10/22 08:27:20;;;;;;;2.33;2.05;;;;;;;11.99;82.51;99307.81;6091717;23;20516;-90
2023/10/22 08:29:47;;;;;;;2.38;2.10;;;;;;;12.01;83.24;99308.47;6118911;23;20046;-87
2023/10/22 08:32:14;;;;;;;2.30;2.10;;;;;;;12.09;83.53;99318.34;6117745;23;20409;-88
2023/10/22 08:34:40;;;;;;;3.42;2.45;;;;;;;12.15;83.94;99312.38;6093655;23;20465;-89
2023/10/22 08:37:07;;;;;;;3.53;1.80;;;;;;;12.18;84.56;99312.03;6117478;23;20026;-88
2023/10/22 08:39:34;;;;;;;3.42;1.98;;;;;;;12.26;85.40;99316.56;6093901;23;20022;-88
2023/10/22 08:42:07;;;;;;;2.80;1.75;;;;;;;12.34;85.22;99311.31;6094750;23;20443;-88
2023/10/22 08:44:38;;;;;;;2.35;0.98;;;;;;;12.41;84.03;99312.31;6070561;23;20021;-87
2023/10/22 08:47:07;;;;;;;4.20;1.75;;;;;;;12.50;83.14;99307.88;6093278;23;20080;-86
2023/10/22 08:49:35;;;;;;;3.95;1.25;;;;;;;12.59;81.76;99307.75;6068338;23;20030;-87
2023/10/22 08:52:02;;;;;;;6.43;1.58;;;;;;;12.68;81.58;99319.25;6070473;23;20343;-86
2023/10/22 08:54:29;;;;;;;4.97;1.40;;;;;;;12.75;81.55;99320.28;6093528;23;20386;-87
2023/10/22 08:56:56;;;;;;;3.83;0.95;;;;;;;12.80;80.85;99319.78;6092655;23;20445;-88
2023/10/22 08:59:23;;;;;;;9.57;1.60;;;;;;;12.85;80.26;99322.78;6094112;23;20088;-89
2023/10/22 09:01:50;;;;;;;8.18;1.50;;;;;;;12.93;79.25;99332.63;6094471;23;20439;-87
2023/10/22 09:04:17;;;;;;;1.77;0.93;;;;;;;12.96;78.77;99332.31;6093913;23;20100;-87
2023/10/22 09:06:47;;;;;;;10.07;1.58;;;;;;;12.98;78.80;99331.16;6070356;23;20025;-87
2023/10/22 09:09:34;;;;;;;3.92;1.17;;;;;;;12.96;78.59;99330.47;6070473;23;20025;-87
2023/10/22 09:12:01;;;;;;;4.30;0.90;;;;;;;13.06;78.59;99346.31;6143120;23;20029;-87
2023/10/22 09:14:28;;;;;;;7.15;1.52;;;;;;;13.07;78.25;99337.31;6093053;23;20033;-87
2023/10/22 09:16:56;;;;;;;2.65;0.85;;;;;;;13.10;78.15;99342.34;6094512;23;20362;-88
2023/10/22 09:19:40;;;;;;;3.72;0.90;;;;;;;13.09;77.70;99342.50;6117852;23;20022;-89
2023/10/22 09:22:20;;;;;;;5.28;1.13;;;;;;;13.11;77.40;99341.34;6092770;23;20025;-89
2023/10/22 09:24:49;;;;;;;4.25;1.05;;;;;;;13.16;76.77;99338.19;6091745;23;20025;-88
2023/10/22 09:27:26;;;;;;;10.68;1.55;;;;;;;13.13;76.86;99350.00;6067638;23;20653;-86
2023/10/22 09:29:54;;;;;;;6.70;1.27;;;;;;;13.17;76.85;99348.66;6116652;23;20390;-87
2023/10/22 09:32:21;;;;;;;3.95;1.30;;;;;;;13.19;76.99;99357.34;6095081;23;20021;-87
2023/10/22 09:34:48;;;;;;;6.82;0.88;;;;;;;13.21;76.91;99363.34;6118189;23;20088;-87
2023/10/22 09:37:14;;;;;;;7.43;1.33;;;;;;;13.24;76.71;99356.84;6143371;23;20354;-85
2023/10/22 09:39:43;;;;;;;7.88;1.05;;;;;;;13.27;76.22;99359.22;6117487;23;20025;-86
2023/10/22 09:42:14;;;;;;;7.50;1.17;;;;;;;13.27;75.81;99358.38;6116218;23;20055;-87
2023/10/22 09:44:44;;;;;;;4.78;1.35;;;;;;;13.31;76.21;99357.88;6094422;23;20458;-87
2023/10/22 09:47:24;;;;;;;6.00;1.45;;;;;;;13.32;75.59;99367.53;6141180;23;20018;-88
2023/10/22 09:49:53;;;;;;;6.00;1.20;;;;;;;13.41;75.91;99355.91;6142110;23;20021;-87
2023/10/22 09:52:21;;;;;;;6.32;1.42;;;;;;;13.46;76.04;99358.91;6093842;23;20021;-87
2023/10/22 09:54:50;;;;;;;8.05;1.20;;;;;;;13.51;75.39;99360.22;6092029;23;20028;-86
2023/10/22 09:57:18;;;;;;;6.15;1.23;;;;;;;13.55;75.26;99354.41;6068596;23;20021;-86
2023/10/22 09:59:47;;;;;;;6.35;1.10;;;;;;;13.61;75.33;99363.56;6117896;23;20028;-87
2023/10/22 10:02:15;;;;;;;6.50;1.52;;;;;;;13.63;75.11;99357.06;6093442;23;20029;-86
2023/10/22 10:04:49;;;;;;;4.85;1.10;;;;;;;13.68;75.17;99359.22;6093799;23;20088;-86
2023/10/22 10:07:17;;;;;;;5.75;1.02;;;;;;;13.71;74.66;99355.38;6092599;23;20052;-86
2023/10/22 10:09:45;;;;;;;8.18;1.20;;;;;;;13.72;74.70;99357.91;6117361;23;20021;-85
2023/10/22 10:12:12;;;;;;;6.90;1.85;;;;;;;13.75;74.36;99356.72;6116695;23;20026;-86
2023/10/22 10:14:43;;;;;;;6.72;1.05;;;;;;;13.74;74.29;99344.38;6092885;23;20036;-87
2023/10/22 10:17:11;;;;;;;9.32;1.25;;;;;;;13.78;74.30;99359.06;6115634;23;20102;-87
2023/10/22 10:19:38;;;;;;;6.55;1.45;;;;;;;13.77;73.83;99363.56;6116679;23;20022;-86
2023/10/22 10:22:05;;;;;;;4.95;1.25;;;;;;;13.78;73.44;99359.06;6070492;23;20025;-86
2023/10/22 10:24:32;;;;;;;4.75;1.05;;;;;;;13.76;73.42;99361.88;6116654;23;20100;-85
2023/10/22 10:26:59;;;;;;;6.82;1.60;;;;;;;13.75;73.54;99359.41;6091839;23;20033;-87
2023/10/22 10:29:28;;;;;;;5.53;1.35;;;;;;;13.73;73.63;99354.22;6116564;23;20026;-87
2023/10/22 10:32:12;;;;;;;7.85;2.05;;;;;;;13.71;73.40;99364.22;6069089;23;20025;-85
2023/10/22 10:34:40;;;;;;;7.13;1.90;;;;;;;13.72;73.72;99370.41;6092318;23;20084;-85
2023/10/22 10:37:15;;;;;;;4.50;1.40;;;;;;;13.72;73.45;99363.25;6094037;23;20029;-86
2023/10/22 10:39:43;;;;;;;6.32;1.30;;;;;;;13.73;73.62;99367.56;6116905;23;20077;-86
2023/10/22 10:42:11;;;;;;;8.50;1.30;;;;;;;13.73;73.46;99364.88;6091065;23;20033;-86
2023/10/22 10:44:56;;;;;;;3.08;0.93;;;;;;;13.67;73.17;99371.75;6115963;23;20096;-86
2023/10/22 10:47:29;;;;;;;3.67;0.85;;;;;;;13.72;73.75;99371.25;6091972;23;20048;-88
2023/10/22 10:50:03;;;;;;;6.50;1.25;;;;;;;13.76;73.48;99374.41;6079735;23;20049;-85
2023/10/22 10:52:33;;;;;;;3.10;1.15;;;;;;;13.79;73.72;99380.25;6077344;23;20021;-86
2023/10/22 10:55:32;;;;;;;4.68;0.98;;;;;;;13.81;73.47;99364.06;6115021;23;20022;-86
2023/10/22 10:57:59;;;;;;;1.85;0.75;;;;;;;13.92;74.08;99368.22;6141464;23;20021;-90
2023/10/22 11:00:30;;;;;;;8.70;1.35;;;;;;;13.96;73.94;99365.03;6072821;23;20509;-89
2023/10/22 11:03:03;;;;;;;9.45;1.20;;;;;;;14.00;73.75;99369.03;6119946;23;20136;-89
2023/10/22 11:05:39;;;;;;;7.15;1.20;;;;;;;14.03;73.33;99357.19;6094525;23;20108;-91
2023/10/22 11:08:18;;;;;;;4.97;0.88;;;;;;;14.03;72.28;99371.38;6119478;23;20394;-88
2023/10/22 11:10:45;;;;;;;8.25;1.17;;;;;;;14.08;72.22;99366.34;6048258;23;20023;-88
2023/10/22 11:13:13;;;;;;;5.35;1.05;;;;;;;14.11;71.81;99382.03;6070258;23;20017;-90
2023/10/22 11:15:40;;;;;;;5.28;1.00;;;;;;;14.14;71.69;99364.84;6095496;23;20057;-89
2023/10/22 11:18:09;;;;;;;4.10;1.10;;;;;;;14.18;71.58;99368.03;6071114;23;20018;-88
2023/10/22 11:20:38;;;;;;;4.72;1.10;;;;;;;14.20;70.23;99369.50;6072916;23;20037;-88
2023/10/22 11:23:18;;;;;;;5.47;1.10;;;;;;;14.15;69.77;99371.03;6072907;23;20021;-89
2023/10/22 11:25:45;;;;;;;6.68;1.10;;;;;;;14.11;70.32;99374.03;6068139;23;20036;-88
2023/10/22 11:28:12;;;;;;;6.63;1.55;;;;;;;14.13;70.09;99375.72;6119412;23;20020;-87
2023/10/22 11:30:41;;;;;;;5.40;1.23;;;;;;;14.18;70.33;99368.84;6071268;23;20736;-90
2023/10/22 11:33:11;;;;;;;5.43;1.35;;;;;;;14.24;70.31;99370.81;6095552;23;20037;-92
2023/10/22 11:35:38;;;;;;;5.10;1.25;;;;;;;14.30;69.90;99366.66;6097199;23;20108;-89